sensor_id;sensor_type;location;lat;lon;timestamp;temperature;humidity
51739;DHT22;37815;52.692;6.226;2023-12-22T00:00:20;20.00;73.90
51739;DHT22;37815;52.692;6.226;2023-12-22T00:01:20;20.00;73.80
51739;DHT22;37815;52.692;6.226;2023-12-22T00:02:21;19.90;73.80
51739;DHT22;37815;52.692;6.226;2023-12-22T00:03:23;20.00;73.90
51739;DHT22;37815;52.692;6.226;2023-12-22T00:04:24;20.00;73.70
51739;DHT22;37815;52.692;6.226;2023-12-22T00:05:25;20.00;73.70
51739;DHT22;37815;52.692;6.226;2023-12-22T00:06:26;20.00;73.80
51739;DHT22;37815;52.692;6.226;2023-12-22T00:07:26;20.00;73.70
51739;DHT22;37815;52.692;6.226;2023-12-22T00:08:28;20.10;73.80
51739;DHT22;37815;52.692;6.226;2023-12-22T00:09:29;20.00;73.80
51739;DHT22;37815;52.692;6.226;2023-12-22T00:10:29;20.00;73.70
51739;DHT22;37815;52.692;6.226;2023-12-22T00:11:30;20.00;73.70
51739;DHT22;37815;52.692;6.226;2023-12-22T00:12:30;19.90;73.70
51739;DHT22;37815;52.692;6.226;2023-12-22T00:13:31;19.90;73.60
51739;DHT22;37815;52.692;6.226;2023-12-22T00:14:33;20.00;73.60
51739;DHT22;37815;52.692;6.226;2023-12-22T00:15:34;20.00;73.60
51739;DHT22;37815;52.692;6.226;2023-12-22T00:16:37;20.00;73.60
51739;DHT22;37815;52.692;6.226;2023-12-22T00:17:37;20.00;73.50
51739;DHT22;37815;52.692;6.226;2023-12-22T00:18:38;20.00;73.60
51739;DHT22;37815;52.692;6.226;2023-12-22T00:19:38;20.00;73.50
51739;DHT22;37815;52.692;6.226;2023-12-22T00:20:39;20.00;73.50
51739;DHT22;37815;52.692;6.226;2023-12-22T00:21:40;20.00;73.50
51739;DHT22;37815;52.692;6.226;2023-12-22T00:22:40;20.00;73.40
51739;DHT22;37815;52.692;6.226;2023-12-22T00:23:41;19.80;73.20
51739;DHT22;37815;52.692;6.226;2023-12-22T00:24:41;19.90;73.30
51739;DHT22;37815;52.692;6.226;2023-12-22T00:25:42;20.00;73.20
51739;DHT22;37815;52.692;6.226;2023-12-22T00:26:43;19.90;73.80
51739;DHT22;37815;52.692;6.226;2023-12-22T00:27:43;19.90;73.10
51739;DHT22;37815;52.692;6.226;2023-12-22T00:28:44;19.90;73.10
51739;DHT22;37815;52.692;6.226;2023-12-22T00:29:44;20.00;73.10
51739;DHT22;37815;52.692;6.226;2023-12-22T00:30:45;19.90;73.10
51739;DHT22;37815;52.692;6.226;2023-12-22T00:31:45;19.80;73.00
51739;DHT22;37815;52.692;6.226;2023-12-22T00:32:46;20.00;73.00
51739;DHT22;37815;52.692;6.226;2023-12-22T00:33:47;20.00;72.90
51739;DHT22;37815;52.692;6.226;2023-12-22T00:34:47;20.00;72.90
51739;DHT22;37815;52.692;6.226;2023-12-22T00:35:48;20.00;72.90
51739;DHT22;37815;52.692;6.226;2023-12-22T00:36:48;19.90;72.70
51739;DHT22;37815;52.692;6.226;2023-12-22T00:37:49;19.90;72.80
51739;DHT22;37815;52.692;6.226;2023-12-22T00:38:50;19.90;72.90
51739;DHT22;37815;52.692;6.226;2023-12-22T00:39:51;19.90;72.80
51739;DHT22;37815;52.692;6.226;2023-12-22T00:40:51;19.90;72.80
51739;DHT22;37815;52.692;6.226;2023-12-22T00:41:52;19.90;72.70
51739;DHT22;37815;52.692;6.226;2023-12-22T00:42:52;19.90;72.70
51739;DHT22;37815;52.692;6.226;2023-12-22T00:43:53;19.90;72.70
51739;DHT22;37815;52.692;6.226;2023-12-22T00:44:53;19.90;72.80
51739;DHT22;37815;52.692;6.226;2023-12-22T00:45:54;19.90;72.70
51739;DHT22;37815;52.692;6.226;2023-12-22T00:46:56;19.80;72.50
51739;DHT22;37815;52.692;6.226;2023-12-22T00:47:57;20.00;72.70
51739;DHT22;37815;52.692;6.226;2023-12-22T00:48:57;19.80;72.50
51739;DHT22;37815;52.692;6.226;2023-12-22T00:49:58;19.80;72.50
51739;DHT22;37815;52.692;6.226;2023-12-22T00:50:58;19.90;72.60
51739;DHT22;37815;52.692;6.226;2023-12-22T00:51:59;19.90;72.60
51739;DHT22;37815;52.692;6.226;2023-12-22T00:53:00;19.90;72.50
51739;DHT22;37815;52.692;6.226;2023-12-22T00:54:00;19.90;72.50
51739;DHT22;37815;52.692;6.226;2023-12-22T00:55:01;19.80;72.50
51739;DHT22;37815;52.692;6.226;2023-12-22T00:56:01;19.90;72.50
51739;DHT22;37815;52.692;6.226;2023-12-22T00:57:05;19.90;72.60
51739;DHT22;37815;52.692;6.226;2023-12-22T00:58:06;20.00;72.70
51739;DHT22;37815;52.692;6.226;2023-12-22T00:59:07;19.90;72.60
51739;DHT22;37815;52.692;6.226;2023-12-22T01:00:08;19.80;72.50
51739;DHT22;37815;52.692;6.226;2023-12-22T01:01:12;19.80;72.50
51739;DHT22;37815;52.692;6.226;2023-12-22T01:02:16;19.80;72.50
51739;DHT22;37815;52.692;6.226;2023-12-22T01:03:17;19.90;72.50
51739;DHT22;37815;52.692;6.226;2023-12-22T01:04:17;19.80;72.40
51739;DHT22;37815;52.692;6.226;2023-12-22T01:05:18;19.80;72.40
51739;DHT22;37815;52.692;6.226;2023-12-22T01:06:18;19.90;72.60
51739;DHT22;37815;52.692;6.226;2023-12-22T01:07:19;19.80;72.50
51739;DHT22;37815;52.692;6.226;2023-12-22T01:08:19;19.80;72.60
51739;DHT22;37815;52.692;6.226;2023-12-22T01:09:21;19.80;72.60
51739;DHT22;37815;52.692;6.226;2023-12-22T01:10:21;19.80;72.60
51739;DHT22;37815;52.692;6.226;2023-12-22T01:11:22;19.80;72.50
51739;DHT22;37815;52.692;6.226;2023-12-22T01:12:22;19.70;72.40
51739;DHT22;37815;52.692;6.226;2023-12-22T01:13:23;19.80;72.50
51739;DHT22;37815;52.692;6.226;2023-12-22T01:14:23;19.90;72.30
51739;DHT22;37815;52.692;6.226;2023-12-22T01:15:24;19.90;72.20
51739;DHT22;37815;52.692;6.226;2023-12-22T01:16:24;19.90;72.10
51739;DHT22;37815;52.692;6.226;2023-12-22T01:17:25;19.80;72.00
51739;DHT22;37815;52.692;6.226;2023-12-22T01:18:26;19.80;72.20
51739;DHT22;37815;52.692;6.226;2023-12-22T01:19:29;19.80;72.00
51739;DHT22;37815;52.692;6.226;2023-12-22T01:20:29;19.80;71.90
51739;DHT22;37815;52.692;6.226;2023-12-22T01:21:30;19.80;71.80
51739;DHT22;37815;52.692;6.226;2023-12-22T01:22:31;19.80;71.70
51739;DHT22;37815;52.692;6.226;2023-12-22T01:23:33;19.80;71.70
51739;DHT22;37815;52.692;6.226;2023-12-22T01:24:33;19.80;71.80
51739;DHT22;37815;52.692;6.226;2023-12-22T01:25:34;19.80;71.90
51739;DHT22;37815;52.692;6.226;2023-12-22T01:26:35;19.80;71.80
51739;DHT22;37815;52.692;6.226;2023-12-22T01:27:35;19.80;71.80
51739;DHT22;37815;52.692;6.226;2023-12-22T01:28:36;19.80;71.80
51739;DHT22;37815;52.692;6.226;2023-12-22T01:29:36;19.80;71.90
51739;DHT22;37815;52.692;6.226;2023-12-22T01:30:37;19.80;71.90
51739;DHT22;37815;52.692;6.226;2023-12-22T01:31:38;19.80;71.80
51739;DHT22;37815;52.692;6.226;2023-12-22T01:32:38;19.70;71.80
51739;DHT22;37815;52.692;6.226;2023-12-22T01:33:39;19.80;71.80
51739;DHT22;37815;52.692;6.226;2023-12-22T01:34:39;19.80;71.90
51739;DHT22;37815;52.692;6.226;2023-12-22T01:35:40;19.80;72.00
51739;DHT22;37815;52.692;6.226;2023-12-22T01:36:41;19.80;72.00
51739;DHT22;37815;52.692;6.226;2023-12-22T01:37:42;19.80;72.10
51739;DHT22;37815;52.692;6.226;2023-12-22T01:38:42;19.80;72.10
51739;DHT22;37815;52.692;6.226;2023-12-22T01:39:43;19.80;72.10
51739;DHT22;37815;52.692;6.226;2023-12-22T01:40:44;19.70;72.00
51739;DHT22;37815;52.692;6.226;2023-12-22T01:41:44;19.70;71.90
51739;DHT22;37815;52.692;6.226;2023-12-22T01:42:45;19.70;71.80
51739;DHT22;37815;52.692;6.226;2023-12-22T01:43:46;19.70;71.60
51739;DHT22;37815;52.692;6.226;2023-12-22T01:44:47;19.70;71.50
51739;DHT22;37815;52.692;6.226;2023-12-22T01:45:49;19.70;71.40
51739;DHT22;37815;52.692;6.226;2023-12-22T01:46:51;19.80;71.50
51739;DHT22;37815;52.692;6.226;2023-12-22T01:47:52;19.80;71.40
51739;DHT22;37815;52.692;6.226;2023-12-22T01:48:52;19.70;71.30
51739;DHT22;37815;52.692;6.226;2023-12-22T01:49:53;19.70;71.20
51739;DHT22;37815;52.692;6.226;2023-12-22T01:50:55;19.70;71.10
51739;DHT22;37815;52.692;6.226;2023-12-22T01:51:56;19.70;71.10
51739;DHT22;37815;52.692;6.226;2023-12-22T01:52:57;19.70;70.90
51739;DHT22;37815;52.692;6.226;2023-12-22T01:53:58;19.80;71.00
51739;DHT22;37815;52.692;6.226;2023-12-22T01:54:59;19.70;71.00
51739;DHT22;37815;52.692;6.226;2023-12-22T01:56:00;19.70;70.90
51739;DHT22;37815;52.692;6.226;2023-12-22T01:57:02;19.70;70.80
51739;DHT22;37815;52.692;6.226;2023-12-22T01:58:03;19.70;70.70
51739;DHT22;37815;52.692;6.226;2023-12-22T01:59:04;19.80;70.80
51739;DHT22;37815;52.692;6.226;2023-12-22T02:00:06;19.80;70.90
51739;DHT22;37815;52.692;6.226;2023-12-22T02:01:07;19.70;70.90
51739;DHT22;37815;52.692;6.226;2023-12-22T02:02:08;19.70;70.90
51739;DHT22;37815;52.692;6.226;2023-12-22T02:03:09;19.70;70.90
51739;DHT22;37815;52.692;6.226;2023-12-22T02:04:09;19.70;70.70
51739;DHT22;37815;52.692;6.226;2023-12-22T02:05:10;19.70;70.70
51739;DHT22;37815;52.692;6.226;2023-12-22T02:06:11;19.70;70.60
51739;DHT22;37815;52.692;6.226;2023-12-22T02:07:12;19.70;70.50
51739;DHT22;37815;52.692;6.226;2023-12-22T02:08:13;19.70;70.50
51739;DHT22;37815;52.692;6.226;2023-12-22T02:09:15;19.60;70.50
51739;DHT22;37815;52.692;6.226;2023-12-22T02:10:15;19.70;70.60
51739;DHT22;37815;52.692;6.226;2023-12-22T02:11:16;19.80;70.70
51739;DHT22;37815;52.692;6.226;2023-12-22T02:12:17;19.70;70.70
51739;DHT22;37815;52.692;6.226;2023-12-22T02:13:17;19.70;70.70
51739;DHT22;37815;52.692;6.226;2023-12-22T02:14:18;19.70;70.90
51739;DHT22;37815;52.692;6.226;2023-12-22T02:15:18;19.70;70.80
51739;DHT22;37815;52.692;6.226;2023-12-22T02:16:39;19.70;70.80
51739;DHT22;37815;52.692;6.226;2023-12-22T02:17:58;19.60;70.90
51739;DHT22;37815;52.692;6.226;2023-12-22T02:20:30;19.60;71.10
51739;DHT22;37815;52.692;6.226;2023-12-22T02:21:32;19.60;71.20
51739;DHT22;37815;52.692;6.226;2023-12-22T02:22:32;19.60;71.10
51739;DHT22;37815;52.692;6.226;2023-12-22T02:23:33;19.60;71.10
51739;DHT22;37815;52.692;6.226;2023-12-22T02:24:34;19.60;71.20
51739;DHT22;37815;52.692;6.226;2023-12-22T02:25:34;19.60;71.20
51739;DHT22;37815;52.692;6.226;2023-12-22T02:26:42;19.70;71.20
51739;DHT22;37815;52.692;6.226;2023-12-22T02:27:50;19.50;71.20
51739;DHT22;37815;52.692;6.226;2023-12-22T02:28:51;19.60;71.40
51739;DHT22;37815;52.692;6.226;2023-12-22T02:30:02;19.60;71.50
51739;DHT22;37815;52.692;6.226;2023-12-22T02:32:38;19.60;71.70
51739;DHT22;37815;52.692;6.226;2023-12-22T02:33:41;19.60;71.80
51739;DHT22;37815;52.692;6.226;2023-12-22T02:34:43;19.60;71.90
51739;DHT22;37815;52.692;6.226;2023-12-22T02:35:49;19.60;71.90
51739;DHT22;37815;52.692;6.226;2023-12-22T02:36:51;19.60;71.90
51739;DHT22;37815;52.692;6.226;2023-12-22T02:37:58;19.60;71.90
51739;DHT22;37815;52.692;6.226;2023-12-22T02:39:01;19.50;71.80
51739;DHT22;37815;52.692;6.226;2023-12-22T02:40:03;19.60;71.90
51739;DHT22;37815;52.692;6.226;2023-12-22T02:41:04;19.60;71.90
51739;DHT22;37815;52.692;6.226;2023-12-22T02:42:06;19.60;71.90
51739;DHT22;37815;52.692;6.226;2023-12-22T02:43:07;19.60;71.70
51739;DHT22;37815;52.692;6.226;2023-12-22T02:44:08;19.50;71.60
51739;DHT22;37815;52.692;6.226;2023-12-22T02:45:18;19.60;71.60
51739;DHT22;37815;52.692;6.226;2023-12-22T02:46:19;19.60;71.40
51739;DHT22;37815;52.692;6.226;2023-12-22T02:47:20;19.60;71.40
51739;DHT22;37815;52.692;6.226;2023-12-22T02:48:20;19.60;71.30
51739;DHT22;37815;52.692;6.226;2023-12-22T02:49:21;19.60;71.20
51739;DHT22;37815;52.692;6.226;2023-12-22T02:50:21;19.50;71.00
51739;DHT22;37815;52.692;6.226;2023-12-22T02:51:22;19.60;71.10
51739;DHT22;37815;52.692;6.226;2023-12-22T02:52:22;19.50;71.00
51739;DHT22;37815;52.692;6.226;2023-12-22T02:53:23;19.50;71.00
51739;DHT22;37815;52.692;6.226;2023-12-22T02:54:24;19.60;71.00
51739;DHT22;37815;52.692;6.226;2023-12-22T02:55:24;19.60;70.80
51739;DHT22;37815;52.692;6.226;2023-12-22T02:56:25;19.60;70.80
51739;DHT22;37815;52.692;6.226;2023-12-22T02:57:25;19.50;70.70
51739;DHT22;37815;52.692;6.226;2023-12-22T02:58:26;19.50;70.60
51739;DHT22;37815;52.692;6.226;2023-12-22T02:59:26;19.60;70.60
51739;DHT22;37815;52.692;6.226;2023-12-22T03:00:28;19.60;70.60
51739;DHT22;37815;52.692;6.226;2023-12-22T03:01:29;19.60;70.60
51739;DHT22;37815;52.692;6.226;2023-12-22T03:02:29;19.60;70.60
51739;DHT22;37815;52.692;6.226;2023-12-22T03:03:30;19.50;70.60
51739;DHT22;37815;52.692;6.226;2023-12-22T03:04:31;19.50;70.70
51739;DHT22;37815;52.692;6.226;2023-12-22T03:05:31;19.50;70.80
51739;DHT22;37815;52.692;6.226;2023-12-22T03:06:32;19.50;70.90
51739;DHT22;37815;52.692;6.226;2023-12-22T03:07:32;19.60;70.90
51739;DHT22;37815;52.692;6.226;2023-12-22T03:08:33;19.50;70.80
51739;DHT22;37815;52.692;6.226;2023-12-22T03:09:33;19.60;70.80
51739;DHT22;37815;52.692;6.226;2023-12-22T03:10:34;19.50;70.80
51739;DHT22;37815;52.692;6.226;2023-12-22T03:11:35;19.50;70.90
51739;DHT22;37815;52.692;6.226;2023-12-22T03:12:35;19.50;70.90
51739;DHT22;37815;52.692;6.226;2023-12-22T03:13:36;19.50;70.90
51739;DHT22;37815;52.692;6.226;2023-12-22T03:14:37;19.50;70.90
51739;DHT22;37815;52.692;6.226;2023-12-22T03:15:37;19.50;71.00
51739;DHT22;37815;52.692;6.226;2023-12-22T03:16:38;19.50;71.00
51739;DHT22;37815;52.692;6.226;2023-12-22T03:17:39;19.50;70.90
51739;DHT22;37815;52.692;6.226;2023-12-22T03:18:40;19.50;70.90
51739;DHT22;37815;52.692;6.226;2023-12-22T03:19:40;19.50;71.00
51739;DHT22;37815;52.692;6.226;2023-12-22T03:20:41;19.50;70.90
51739;DHT22;37815;52.692;6.226;2023-12-22T03:21:41;19.50;70.80
51739;DHT22;37815;52.692;6.226;2023-12-22T03:22:42;19.50;70.70
51739;DHT22;37815;52.692;6.226;2023-12-22T03:23:42;19.50;70.70
51739;DHT22;37815;52.692;6.226;2023-12-22T03:24:43;19.50;70.70
51739;DHT22;37815;52.692;6.226;2023-12-22T03:25:44;19.50;70.70
51739;DHT22;37815;52.692;6.226;2023-12-22T03:26:46;19.50;70.70
51739;DHT22;37815;52.692;6.226;2023-12-22T03:27:46;19.50;70.80
51739;DHT22;37815;52.692;6.226;2023-12-22T03:28:47;19.50;70.90
51739;DHT22;37815;52.692;6.226;2023-12-22T03:29:47;19.50;70.80
51739;DHT22;37815;52.692;6.226;2023-12-22T03:30:48;19.40;70.80
51739;DHT22;37815;52.692;6.226;2023-12-22T03:31:48;19.40;70.80
51739;DHT22;37815;52.692;6.226;2023-12-22T03:32:49;19.50;70.80
51739;DHT22;37815;52.692;6.226;2023-12-22T03:33:49;19.50;70.80
51739;DHT22;37815;52.692;6.226;2023-12-22T03:34:50;19.50;70.70
51739;DHT22;37815;52.692;6.226;2023-12-22T03:35:50;19.40;70.60
51739;DHT22;37815;52.692;6.226;2023-12-22T03:36:51;19.40;70.60
51739;DHT22;37815;52.692;6.226;2023-12-22T03:37:51;19.40;70.60
51739;DHT22;37815;52.692;6.226;2023-12-22T03:38:52;19.40;70.50
51739;DHT22;37815;52.692;6.226;2023-12-22T03:39:52;19.40;70.40
51739;DHT22;37815;52.692;6.226;2023-12-22T03:40:53;19.50;70.40
51739;DHT22;37815;52.692;6.226;2023-12-22T03:41:54;19.50;70.50
51739;DHT22;37815;52.692;6.226;2023-12-22T03:42:54;19.50;70.50
51739;DHT22;37815;52.692;6.226;2023-12-22T03:43:56;19.40;70.40
51739;DHT22;37815;52.692;6.226;2023-12-22T03:44:56;19.40;70.40
51739;DHT22;37815;52.692;6.226;2023-12-22T03:45:57;19.40;70.40
51739;DHT22;37815;52.692;6.226;2023-12-22T03:46:58;19.50;70.30
51739;DHT22;37815;52.692;6.226;2023-12-22T03:47:58;19.40;70.30
51739;DHT22;37815;52.692;6.226;2023-12-22T03:48:59;19.40;70.30
51739;DHT22;37815;52.692;6.226;2023-12-22T03:49:59;19.40;70.30
51739;DHT22;37815;52.692;6.226;2023-12-22T03:51:00;19.40;71.00
51739;DHT22;37815;52.692;6.226;2023-12-22T03:52:00;19.50;70.50
51739;DHT22;37815;52.692;6.226;2023-12-22T03:53:01;19.40;70.50
51739;DHT22;37815;52.692;6.226;2023-12-22T03:54:01;19.40;70.50
51739;DHT22;37815;52.692;6.226;2023-12-22T03:55:03;19.30;70.50
51739;DHT22;37815;52.692;6.226;2023-12-22T03:56:03;19.40;70.50
51739;DHT22;37815;52.692;6.226;2023-12-22T03:57:04;19.40;70.50
51739;DHT22;37815;52.692;6.226;2023-12-22T03:58:04;19.40;70.50
51739;DHT22;37815;52.692;6.226;2023-12-22T03:59:07;19.40;70.50
51739;DHT22;37815;52.692;6.226;2023-12-22T04:00:08;19.40;70.40
51739;DHT22;37815;52.692;6.226;2023-12-22T04:01:09;19.40;70.40
51739;DHT22;37815;52.692;6.226;2023-12-22T04:02:09;19.40;70.40
51739;DHT22;37815;52.692;6.226;2023-12-22T04:03:10;19.40;70.40
51739;DHT22;37815;52.692;6.226;2023-12-22T04:04:10;19.40;70.40
51739;DHT22;37815;52.692;6.226;2023-12-22T04:05:11;19.40;70.30
51739;DHT22;37815;52.692;6.226;2023-12-22T04:06:12;19.40;70.40
51739;DHT22;37815;52.692;6.226;2023-12-22T04:07:12;19.40;70.40
51739;DHT22;37815;52.692;6.226;2023-12-22T04:08:13;19.40;70.30
51739;DHT22;37815;52.692;6.226;2023-12-22T04:09:13;19.40;70.30
51739;DHT22;37815;52.692;6.226;2023-12-22T04:10:16;19.40;70.30
51739;DHT22;37815;52.692;6.226;2023-12-22T04:11:18;19.30;70.40
51739;DHT22;37815;52.692;6.226;2023-12-22T04:12:18;19.40;70.40
51739;DHT22;37815;52.692;6.226;2023-12-22T04:13:19;19.40;70.30
51739;DHT22;37815;52.692;6.226;2023-12-22T04:14:19;19.40;70.30
51739;DHT22;37815;52.692;6.226;2023-12-22T04:15:20;19.40;70.30
51739;DHT22;37815;52.692;6.226;2023-12-22T04:16:20;19.40;70.30
51739;DHT22;37815;52.692;6.226;2023-12-22T04:17:21;19.40;70.40
51739;DHT22;37815;52.692;6.226;2023-12-22T04:18:21;19.30;70.40
51739;DHT22;37815;52.692;6.226;2023-12-22T04:19:22;19.40;70.30
51739;DHT22;37815;52.692;6.226;2023-12-22T04:20:22;19.30;70.30
51739;DHT22;37815;52.692;6.226;2023-12-22T04:21:24;19.30;70.30
51739;DHT22;37815;52.692;6.226;2023-12-22T04:22:24;19.30;70.60
51739;DHT22;37815;52.692;6.226;2023-12-22T04:23:25;19.40;71.10
51739;DHT22;37815;52.692;6.226;2023-12-22T04:24:25;19.30;70.50
51739;DHT22;37815;52.692;6.226;2023-12-22T04:25:26;19.30;70.50
51739;DHT22;37815;52.692;6.226;2023-12-22T04:26:27;19.20;70.40
51739;DHT22;37815;52.692;6.226;2023-12-22T04:27:27;19.40;70.40
51739;DHT22;37815;52.692;6.226;2023-12-22T04:28:28;19.30;70.30
51739;DHT22;37815;52.692;6.226;2023-12-22T04:29:28;19.40;70.50
51739;DHT22;37815;52.692;6.226;2023-12-22T04:30:29;19.30;70.50
51739;DHT22;37815;52.692;6.226;2023-12-22T04:31:29;19.30;70.60
51739;DHT22;37815;52.692;6.226;2023-12-22T04:32:30;19.30;70.50
51739;DHT22;37815;52.692;6.226;2023-12-22T04:33:30;19.30;70.50
51739;DHT22;37815;52.692;6.226;2023-12-22T04:34:31;19.30;70.40
51739;DHT22;37815;52.692;6.226;2023-12-22T04:35:31;19.30;70.40
51739;DHT22;37815;52.692;6.226;2023-12-22T04:36:32;19.30;70.40
51739;DHT22;37815;52.692;6.226;2023-12-22T04:37:33;19.30;70.30
51739;DHT22;37815;52.692;6.226;2023-12-22T04:38:33;19.30;70.40
51739;DHT22;37815;52.692;6.226;2023-12-22T04:39:34;19.30;70.40
51739;DHT22;37815;52.692;6.226;2023-12-22T04:40:34;19.30;70.40
51739;DHT22;37815;52.692;6.226;2023-12-22T04:41:35;19.30;70.40
51739;DHT22;37815;52.692;6.226;2023-12-22T04:42:36;19.30;70.40
51739;DHT22;37815;52.692;6.226;2023-12-22T04:43:37;19.30;70.50
51739;DHT22;37815;52.692;6.226;2023-12-22T04:44:37;19.30;70.50
51739;DHT22;37815;52.692;6.226;2023-12-22T04:45:38;19.30;70.40
51739;DHT22;37815;52.692;6.226;2023-12-22T04:46:38;19.30;70.40
51739;DHT22;37815;52.692;6.226;2023-12-22T04:47:39;19.30;70.40
51739;DHT22;37815;52.692;6.226;2023-12-22T04:48:39;19.30;70.50
51739;DHT22;37815;52.692;6.226;2023-12-22T04:49:40;19.30;70.60
51739;DHT22;37815;52.692;6.226;2023-12-22T04:50:40;19.30;70.60
51739;DHT22;37815;52.692;6.226;2023-12-22T04:51:42;19.30;70.50
51739;DHT22;37815;52.692;6.226;2023-12-22T04:52:42;19.30;70.50
51739;DHT22;37815;52.692;6.226;2023-12-22T04:53:43;19.30;70.50
51739;DHT22;37815;52.692;6.226;2023-12-22T04:54:44;19.30;70.50
51739;DHT22;37815;52.692;6.226;2023-12-22T04:55:44;19.30;70.60
51739;DHT22;37815;52.692;6.226;2023-12-22T04:56:45;19.30;70.50
51739;DHT22;37815;52.692;6.226;2023-12-22T04:57:45;19.30;70.60
51739;DHT22;37815;52.692;6.226;2023-12-22T04:58:46;19.30;70.60
51739;DHT22;37815;52.692;6.226;2023-12-22T04:59:46;19.20;70.60
51739;DHT22;37815;52.692;6.226;2023-12-22T05:00:47;19.20;70.50
51739;DHT22;37815;52.692;6.226;2023-12-22T05:01:48;19.20;70.50
51739;DHT22;37815;52.692;6.226;2023-12-22T05:02:48;19.20;70.40
51739;DHT22;37815;52.692;6.226;2023-12-22T05:03:49;19.20;70.30
51739;DHT22;37815;52.692;6.226;2023-12-22T05:04:50;19.20;70.20
51739;DHT22;37815;52.692;6.226;2023-12-22T05:05:50;19.20;70.20
51739;DHT22;37815;52.692;6.226;2023-12-22T05:06:51;19.20;70.30
51739;DHT22;37815;52.692;6.226;2023-12-22T05:07:51;19.20;70.20
51739;DHT22;37815;52.692;6.226;2023-12-22T05:08:52;19.20;70.40
51739;DHT22;37815;52.692;6.226;2023-12-22T05:09:52;19.30;70.40
51739;DHT22;37815;52.692;6.226;2023-12-22T05:10:54;19.20;70.40
51739;DHT22;37815;52.692;6.226;2023-12-22T05:11:55;19.20;70.40
51739;DHT22;37815;52.692;6.226;2023-12-22T05:12:55;19.30;70.50
51739;DHT22;37815;52.692;6.226;2023-12-22T05:13:56;19.20;70.40
51739;DHT22;37815;52.692;6.226;2023-12-22T05:14:57;19.20;70.30
51739;DHT22;37815;52.692;6.226;2023-12-22T05:15:57;19.30;70.30
51739;DHT22;37815;52.692;6.226;2023-12-22T05:16:58;19.20;70.80
51739;DHT22;37815;52.692;6.226;2023-12-22T05:17:58;19.20;70.30
51739;DHT22;37815;52.692;6.226;2023-12-22T05:18:59;19.10;70.30
51739;DHT22;37815;52.692;6.226;2023-12-22T05:19:59;19.20;70.20
51739;DHT22;37815;52.692;6.226;2023-12-22T05:21:00;19.20;70.20
51739;DHT22;37815;52.692;6.226;2023-12-22T05:22:00;19.30;70.20
51739;DHT22;37815;52.692;6.226;2023-12-22T05:23:01;19.20;70.30
51739;DHT22;37815;52.692;6.226;2023-12-22T05:24:02;19.20;70.30
51739;DHT22;37815;52.692;6.226;2023-12-22T05:25:03;19.20;70.40
51739;DHT22;37815;52.692;6.226;2023-12-22T05:26:04;19.20;70.30
51739;DHT22;37815;52.692;6.226;2023-12-22T05:27:04;19.20;70.30
51739;DHT22;37815;52.692;6.226;2023-12-22T05:28:05;19.20;70.50
51739;DHT22;37815;52.692;6.226;2023-12-22T05:29:05;19.20;70.60
51739;DHT22;37815;52.692;6.226;2023-12-22T05:30:09;19.20;70.60
51739;DHT22;37815;52.692;6.226;2023-12-22T05:31:09;19.20;70.60
51739;DHT22;37815;52.692;6.226;2023-12-22T05:32:10;19.20;70.60
51739;DHT22;37815;52.692;6.226;2023-12-22T05:33:10;19.20;70.40
51739;DHT22;37815;52.692;6.226;2023-12-22T05:34:11;19.20;70.40
51739;DHT22;37815;52.692;6.226;2023-12-22T05:35:12;19.20;70.30
51739;DHT22;37815;52.692;6.226;2023-12-22T05:36:12;19.20;70.20
51739;DHT22;37815;52.692;6.226;2023-12-22T05:37:13;19.20;70.30
51739;DHT22;37815;52.692;6.226;2023-12-22T05:38:14;19.20;70.20
51739;DHT22;37815;52.692;6.226;2023-12-22T05:39:14;19.20;70.20
51739;DHT22;37815;52.692;6.226;2023-12-22T05:40:15;19.20;70.30
51739;DHT22;37815;52.692;6.226;2023-12-22T05:41:16;19.20;70.20
51739;DHT22;37815;52.692;6.226;2023-12-22T05:42:16;19.20;70.20
51739;DHT22;37815;52.692;6.226;2023-12-22T05:43:17;19.20;70.20
51739;DHT22;37815;52.692;6.226;2023-12-22T05:44:18;19.20;70.30
51739;DHT22;37815;52.692;6.226;2023-12-22T05:45:18;19.20;70.60
51739;DHT22;37815;52.692;6.226;2023-12-22T05:46:19;19.20;70.90
51739;DHT22;37815;52.692;6.226;2023-12-22T05:47:20;19.20;71.10
51739;DHT22;37815;52.692;6.226;2023-12-22T05:48:20;19.20;72.00
51739;DHT22;37815;52.692;6.226;2023-12-22T05:49:22;19.20;71.60
51739;DHT22;37815;52.692;6.226;2023-12-22T05:50:24;19.20;71.60
51739;DHT22;37815;52.692;6.226;2023-12-22T05:51:24;19.20;71.60
51739;DHT22;37815;52.692;6.226;2023-12-22T05:52:25;19.30;71.80
51739;DHT22;37815;52.692;6.226;2023-12-22T05:53:26;19.30;71.80
51739;DHT22;37815;52.692;6.226;2023-12-22T05:54:26;19.30;71.80
51739;DHT22;37815;52.692;6.226;2023-12-22T05:55:27;19.30;71.80
51739;DHT22;37815;52.692;6.226;2023-12-22T05:56:27;19.30;71.90
51739;DHT22;37815;52.692;6.226;2023-12-22T05:57:28;19.40;71.90
51739;DHT22;37815;52.692;6.226;2023-12-22T05:58:28;19.40;71.80
51739;DHT22;37815;52.692;6.226;2023-12-22T05:59:29;19.40;71.90
51739;DHT22;37815;52.692;6.226;2023-12-22T06:00:32;19.40;71.80
51739;DHT22;37815;52.692;6.226;2023-12-22T06:01:33;19.40;71.80
51739;DHT22;37815;52.692;6.226;2023-12-22T06:02:33;19.40;71.80
51739;DHT22;37815;52.692;6.226;2023-12-22T06:03:35;19.40;71.90
51739;DHT22;37815;52.692;6.226;2023-12-22T06:04:36;19.40;71.80
51739;DHT22;37815;52.692;6.226;2023-12-22T06:05:36;19.50;71.80
51739;DHT22;37815;52.692;6.226;2023-12-22T06:06:37;19.50;71.70
51739;DHT22;37815;52.692;6.226;2023-12-22T06:07:38;19.50;71.70
51739;DHT22;37815;52.692;6.226;2023-12-22T06:08:39;19.50;71.70
51739;DHT22;37815;52.692;6.226;2023-12-22T06:09:40;19.50;71.70
51739;DHT22;37815;52.692;6.226;2023-12-22T06:10:40;19.50;71.80
51739;DHT22;37815;52.692;6.226;2023-12-22T06:11:41;19.50;71.80
51739;DHT22;37815;52.692;6.226;2023-12-22T06:12:41;19.60;71.90
51739;DHT22;37815;52.692;6.226;2023-12-22T06:13:42;19.60;71.70
51739;DHT22;37815;52.692;6.226;2023-12-22T06:14:43;19.60;71.70
51739;DHT22;37815;52.692;6.226;2023-12-22T06:15:43;19.60;71.50
51739;DHT22;37815;52.692;6.226;2023-12-22T06:16:44;19.60;71.40
51739;DHT22;37815;52.692;6.226;2023-12-22T06:17:44;19.60;71.40
51739;DHT22;37815;52.692;6.226;2023-12-22T06:18:45;19.60;71.40
51739;DHT22;37815;52.692;6.226;2023-12-22T06:19:45;19.60;71.40
51739;DHT22;37815;52.692;6.226;2023-12-22T06:20:46;19.60;71.60
51739;DHT22;37815;52.692;6.226;2023-12-22T06:21:46;19.60;71.60
51739;DHT22;37815;52.692;6.226;2023-12-22T06:22:47;19.60;71.50
51739;DHT22;37815;52.692;6.226;2023-12-22T06:23:47;19.60;71.50
51739;DHT22;37815;52.692;6.226;2023-12-22T06:24:48;19.70;71.60
51739;DHT22;37815;52.692;6.226;2023-12-22T06:25:48;19.60;71.60
51739;DHT22;37815;52.692;6.226;2023-12-22T06:26:49;19.70;71.60
51739;DHT22;37815;52.692;6.226;2023-12-22T06:27:50;19.70;71.50